sensor_id;sensor_type;location;lat;lon;timestamp;P1;durP1;ratioP1;P2;durP2;ratioP2
32501;SDS011;18952;52.516;13.460;2022-11-30T00:03:37;99.43;;;74.32;;
32501;SDS011;18952;52.516;13.460;2022-11-30T00:06:05;100.03;;;74.65;;
32501;SDS011;18952;52.516;13.460;2022-11-30T00:08:33;106.40;;;76.22;;
32501;SDS011;18952;52.516;13.460;2022-11-30T00:11:02;100.53;;;73.15;;
32501;SDS011;18952;52.516;13.460;2022-11-30T00:13:33;105.00;;;74.40;;
32501;SDS011;18952;52.516;13.460;2022-11-30T00:16:00;101.80;;;75.30;;
32501;SDS011;18952;52.516;13.460;2022-11-30T00:18:26;106.90;;;76.20;;
32501;SDS011;18952;52.516;13.460;2022-11-30T00:20:53;106.38;;;76.07;;
32501;SDS011;18952;52.516;13.460;2022-11-30T00:23:20;102.28;;;75.28;;
32501;SDS011;18952;52.516;13.460;2022-11-30T00:25:47;100.25;;;74.43;;
32501;SDS011;18952;52.516;13.460;2022-11-30T00:28:13;104.47;;;74.15;;
32501;SDS011;18952;52.516;13.460;2022-11-30T00:30:40;102.80;;;76.30;;
32501;SDS011;18952;52.516;13.460;2022-11-30T00:33:07;99.82;;;74.78;;
32501;SDS011;18952;52.516;13.460;2022-11-30T00:35:33;100.47;;;73.97;;
32501;SDS011;18952;52.516;13.460;2022-11-30T00:38:00;103.18;;;73.10;;
32501;SDS011;18952;52.516;13.460;2022-11-30T00:40:27;101.45;;;73.82;;
32501;SDS011;18952;52.516;13.460;2022-11-30T00:42:54;103.15;;;75.93;;
32501;SDS011;18952;52.516;13.460;2022-11-30T00:45:21;97.88;;;73.50;;
32501;SDS011;18952;52.516;13.460;2022-11-30T00:47:47;97.18;;;73.78;;
32501;SDS011;18952;52.516;13.460;2022-11-30T00:50:14;107.22;;;76.78;;
32501;SDS011;18952;52.516;13.460;2022-11-30T00:52:41;101.47;;;74.60;;
32501;SDS011;18952;52.516;13.460;2022-11-30T00:55:08;102.35;;;76.47;;
32501;SDS011;18952;52.516;13.460;2022-11-30T00:57:34;107.40;;;77.22;;
32501;SDS011;18952;52.516;13.460;2022-11-30T01:00:01;103.32;;;76.50;;
32501;SDS011;18952;52.516;13.460;2022-11-30T01:02:29;104.38;;;77.68;;
32501;SDS011;18952;52.516;13.460;2022-11-30T01:04:55;105.90;;;77.45;;
32501;SDS011;18952;52.516;13.460;2022-11-30T01:07:22;104.45;;;77.15;;
32501;SDS011;18952;52.516;13.460;2022-11-30T01:09:49;105.68;;;76.57;;
32501;SDS011;18952;52.516;13.460;2022-11-30T01:12:15;110.22;;;78.82;;
32501;SDS011;18952;52.516;13.460;2022-11-30T01:14:42;107.43;;;78.28;;
32501;SDS011;18952;52.516;13.460;2022-11-30T01:17:09;106.75;;;77.25;;
32501;SDS011;18952;52.516;13.460;2022-11-30T01:19:36;102.25;;;75.75;;
32501;SDS011;18952;52.516;13.460;2022-11-30T01:22:03;108.13;;;77.57;;
32501;SDS011;18952;52.516;13.460;2022-11-30T01:24:30;106.70;;;77.45;;
32501;SDS011;18952;52.516;13.460;2022-11-30T01:26:56;111.97;;;79.20;;
32501;SDS011;18952;52.516;13.460;2022-11-30T01:29:23;108.03;;;79.30;;
32501;SDS011;18952;52.516;13.460;2022-11-30T01:31:50;105.47;;;78.05;;
32501;SDS011;18952;52.516;13.460;2022-11-30T01:34:16;107.32;;;77.78;;
32501;SDS011;18952;52.516;13.460;2022-11-30T01:36:43;106.90;;;78.53;;
32501;SDS011;18952;52.516;13.460;2022-11-30T01:39:10;108.07;;;79.13;;
32501;SDS011;18952;52.516;13.460;2022-11-30T01:41:37;106.68;;;78.03;;
32501;SDS011;18952;52.516;13.460;2022-11-30T01:46:35;108.90;;;78.40;;
32501;SDS011;18952;52.516;13.460;2022-11-30T01:51:57;106.25;;;77.25;;
32501;SDS011;18952;52.516;13.460;2022-11-30T01:54:27;101.88;;;76.90;;
32501;SDS011;18952;52.516;13.460;2022-11-30T01:56:59;109.35;;;79.88;;
32501;SDS011;18952;52.516;13.460;2022-11-30T01:59:31;110.88;;;78.43;;
32501;SDS011;18952;52.516;13.460;2022-11-30T02:01:58;107.50;;;77.95;;
32501;SDS011;18952;52.516;13.460;2022-11-30T02:04:27;106.78;;;77.55;;
32501;SDS011;18952;52.516;13.460;2022-11-30T02:06:59;105.57;;;79.13;;
32501;SDS011;18952;52.516;13.460;2022-11-30T02:09:28;108.55;;;77.68;;
32501;SDS011;18952;52.516;13.460;2022-11-30T02:11:56;111.15;;;77.75;;
32501;SDS011;18952;52.516;13.460;2022-11-30T02:25:59;110.60;;;78.03;;
32501;SDS011;18952;52.516;13.460;2022-11-30T02:29:02;104.93;;;79.10;;
32501;SDS011;18952;52.516;13.460;2022-11-30T02:34:31;106.40;;;77.75;;
32501;SDS011;18952;52.516;13.460;2022-11-30T02:37:00;106.32;;;76.68;;
32501;SDS011;18952;52.516;13.460;2022-11-30T02:39:28;104.60;;;77.80;;
32501;SDS011;18952;52.516;13.460;2022-11-30T02:41:55;101.10;;;75.28;;
32501;SDS011;18952;52.516;13.460;2022-11-30T02:44:22;106.57;;;79.00;;
32501;SDS011;18952;52.516;13.460;2022-11-30T02:49:22;102.00;;;78.47;;
32501;SDS011;18952;52.516;13.460;2022-11-30T02:51:58;113.55;;;77.68;;
32501;SDS011;18952;52.516;13.460;2022-11-30T02:54:27;102.88;;;76.35;;
32501;SDS011;18952;52.516;13.460;2022-11-30T02:56:54;107.00;;;78.03;;
32501;SDS011;18952;52.516;13.460;2022-11-30T02:59:21;105.90;;;78.22;;
32501;SDS011;18952;52.516;13.460;2022-11-30T03:01:47;107.40;;;77.82;;
32501;SDS011;18952;52.516;13.460;2022-11-30T03:04:14;108.50;;;77.72;;
32501;SDS011;18952;52.516;13.460;2022-11-30T03:06:41;102.05;;;77.38;;
32501;SDS011;18952;52.516;13.460;2022-11-30T03:09:07;103.32;;;76.93;;
32501;SDS011;18952;52.516;13.460;2022-11-30T03:11:34;106.40;;;78.20;;
32501;SDS011;18952;52.516;13.460;2022-11-30T03:14:01;104.70;;;77.97;;
32501;SDS011;18952;52.516;13.460;2022-11-30T03:16:28;105.47;;;77.10;;
32501;SDS011;18952;52.516;13.460;2022-11-30T03:18:56;102.45;;;76.70;;
32501;SDS011;18952;52.516;13.460;2022-11-30T03:21:23;105.97;;;77.40;;
32501;SDS011;18952;52.516;13.460;2022-11-30T03:23:50;107.50;;;78.20;;
32501;SDS011;18952;52.516;13.460;2022-11-30T03:26:16;105.35;;;79.10;;
32501;SDS011;18952;52.516;13.460;2022-11-30T03:28:43;104.07;;;77.30;;
32501;SDS011;18952;52.516;13.460;2022-11-30T03:31:11;106.15;;;78.55;;
32501;SDS011;18952;52.516;13.460;2022-11-30T03:33:41;106.53;;;77.60;;
32501;SDS011;18952;52.516;13.460;2022-11-30T03:36:09;107.60;;;79.03;;
32501;SDS011;18952;52.516;13.460;2022-11-30T03:38:37;109.95;;;78.85;;
32501;SDS011;18952;52.516;13.460;2022-11-30T03:41:05;108.82;;;78.72;;
32501;SDS011;18952;52.516;13.460;2022-11-30T03:43:34;107.45;;;77.70;;
32501;SDS011;18952;52.516;13.460;2022-11-30T03:46:01;106.63;;;79.07;;
32501;SDS011;18952;52.516;13.460;2022-11-30T03:48:28;104.82;;;76.53;;
32501;SDS011;18952;52.516;13.460;2022-11-30T03:50:55;110.75;;;79.65;;
32501;SDS011;18952;52.516;13.460;2022-11-30T03:53:23;109.15;;;77.35;;
32501;SDS011;18952;52.516;13.460;2022-11-30T03:55:51;112.30;;;80.55;;
32501;SDS011;18952;52.516;13.460;2022-11-30T03:58:19;110.20;;;79.32;;
32501;SDS011;18952;52.516;13.460;2022-11-30T04:00:46;107.10;;;80.35;;
32501;SDS011;18952;52.516;13.460;2022-11-30T04:03:13;105.20;;;78.65;;
32501;SDS011;18952;52.516;13.460;2022-11-30T04:05:39;110.78;;;80.68;;
32501;SDS011;18952;52.516;13.460;2022-11-30T04:08:06;107.95;;;80.20;;
32501;SDS011;18952;52.516;13.460;2022-11-30T04:10:33;111.60;;;81.07;;
32501;SDS011;18952;52.516;13.460;2022-11-30T04:13:00;106.32;;;79.13;;
32501;SDS011;18952;52.516;13.460;2022-11-30T04:15:26;105.20;;;79.82;;
32501;SDS011;18952;52.516;13.460;2022-11-30T04:17:53;109.35;;;80.50;;
32501;SDS011;18952;52.516;13.460;2022-11-30T04:20:20;108.50;;;80.03;;
32501;SDS011;18952;52.516;13.460;2022-11-30T04:22:48;104.03;;;79.97;;
32501;SDS011;18952;52.516;13.460;2022-11-30T04:25:15;107.90;;;79.55;;
32501;SDS011;18952;52.516;13.460;2022-11-30T04:27:44;108.22;;;79.15;;
32501;SDS011;18952;52.516;13.460;2022-11-30T04:30:11;112.13;;;81.07;;
32501;SDS011;18952;52.516;13.460;2022-11-30T04:32:38;106.95;;;78.30;;
32501;SDS011;18952;52.516;13.460;2022-11-30T04:35:05;112.82;;;80.38;;
32501;SDS011;18952;52.516;13.460;2022-11-30T04:37:32;109.57;;;79.18;;
32501;SDS011;18952;52.516;13.460;2022-11-30T04:39:58;110.80;;;79.07;;
32501;SDS011;18952;52.516;13.460;2022-11-30T04:42:25;112.53;;;82.05;;
32501;SDS011;18952;52.516;13.460;2022-11-30T04:44:52;113.03;;;81.13;;
32501;SDS011;18952;52.516;13.460;2022-11-30T04:47:18;110.40;;;79.70;;
32501;SDS011;18952;52.516;13.460;2022-11-30T04:49:45;110.75;;;78.85;;
32501;SDS011;18952;52.516;13.460;2022-11-30T04:52:12;108.00;;;79.22;;
32501;SDS011;18952;52.516;13.460;2022-11-30T04:54:39;111.78;;;79.88;;
32501;SDS011;18952;52.516;13.460;2022-11-30T04:57:05;110.45;;;80.15;;
32501;SDS011;18952;52.516;13.460;2022-11-30T04:59:32;116.72;;;81.82;;
32501;SDS011;18952;52.516;13.460;2022-11-30T05:01:59;112.82;;;80.28;;
32501;SDS011;18952;52.516;13.460;2022-11-30T05:04:26;114.65;;;80.70;;
32501;SDS011;18952;52.516;13.460;2022-11-30T05:06:54;112.18;;;83.13;;
32501;SDS011;18952;52.516;13.460;2022-11-30T05:09:21;114.97;;;81.50;;
32501;SDS011;18952;52.516;13.460;2022-11-30T05:11:48;108.95;;;80.28;;
32501;SDS011;18952;52.516;13.460;2022-11-30T05:14:16;116.03;;;80.13;;
32501;SDS011;18952;52.516;13.460;2022-11-30T05:16:45;113.22;;;81.20;;
32501;SDS011;18952;52.516;13.460;2022-11-30T05:19:12;109.70;;;80.38;;
32501;SDS011;18952;52.516;13.460;2022-11-30T05:21:40;110.15;;;81.13;;
32501;SDS011;18952;52.516;13.460;2022-11-30T05:24:11;113.90;;;81.90;;
32501;SDS011;18952;52.516;13.460;2022-11-30T05:26:37;113.63;;;81.28;;
32501;SDS011;18952;52.516;13.460;2022-11-30T05:29:04;111.65;;;81.30;;
32501;SDS011;18952;52.516;13.460;2022-11-30T05:31:32;113.63;;;81.88;;
32501;SDS011;18952;52.516;13.460;2022-11-30T05:33:59;109.00;;;80.45;;
32501;SDS011;18952;52.516;13.460;2022-11-30T05:36:26;111.22;;;82.68;;
32501;SDS011;18952;52.516;13.460;2022-11-30T05:38:52;111.32;;;79.75;;
32501;SDS011;18952;52.516;13.460;2022-11-30T05:41:19;116.88;;;83.43;;
32501;SDS011;18952;52.516;13.460;2022-11-30T05:43:46;118.97;;;84.45;;
32501;SDS011;18952;52.516;13.460;2022-11-30T05:46:12;115.85;;;82.60;;
32501;SDS011;18952;52.516;13.460;2022-11-30T05:48:39;112.97;;;83.13;;
32501;SDS011;18952;52.516;13.460;2022-11-30T05:51:07;117.95;;;82.35;;
32501;SDS011;18952;52.516;13.460;2022-11-30T05:53:38;111.72;;;80.97;;
32501;SDS011;18952;52.516;13.460;2022-11-30T05:56:06;118.53;;;82.82;;
32501;SDS011;18952;52.516;13.460;2022-11-30T05:58:35;111.75;;;82.03;;
32501;SDS011;18952;52.516;13.460;2022-11-30T06:01:05;111.82;;;81.82;;
32501;SDS011;18952;52.516;13.460;2022-11-30T06:03:32;112.35;;;80.93;;
32501;SDS011;18952;52.516;13.460;2022-11-30T06:06:02;114.68;;;81.68;;
32501;SDS011;18952;52.516;13.460;2022-11-30T06:08:30;107.95;;;80.32;;
32501;SDS011;18952;52.516;13.460;2022-11-30T06:10:58;117.57;;;82.20;;
32501;SDS011;18952;52.516;13.460;2022-11-30T06:13:26;108.80;;;80.97;;
32501;SDS011;18952;52.516;13.460;2022-11-30T06:15:57;109.75;;;79.55;;
32501;SDS011;18952;52.516;13.460;2022-11-30T06:18:24;110.90;;;80.05;;
32501;SDS011;18952;52.516;13.460;2022-11-30T06:20:51;114.70;;;80.05;;
32501;SDS011;18952;52.516;13.460;2022-11-30T06:23:18;111.47;;;81.53;;
32501;SDS011;18952;52.516;13.460;2022-11-30T06:25:44;107.72;;;79.60;;
32501;SDS011;18952;52.516;13.460;2022-11-30T06:28:11;110.47;;;78.80;;
32501;SDS011;18952;52.516;13.460;2022-11-30T06:30:38;111.28;;;78.50;;
32501;SDS011;18952;52.516;13.460;2022-11-30T06:33:05;108.82;;;79.53;;
32501;SDS011;18952;52.516;13.460;2022-11-30T06:35:31;103.90;;;78.65;;
32501;SDS011;18952;52.516;13.460;2022-11-30T06:37:58;113.30;;;79.05;;
32501;SDS011;18952;52.516;13.460;2022-11-30T06:40:25;104.78;;;78.35;;
32501;SDS011;18952;52.516;13.460;2022-11-30T06:42:52;111.10;;;77.57;;
32501;SDS011;18952;52.516;13.460;2022-11-30T06:45:19;111.68;;;78.78;;
32501;SDS011;18952;52.516;13.460;2022-11-30T06:47:46;112.28;;;79.78;;
32501;SDS011;18952;52.516;13.460;2022-11-30T06:50:13;110.35;;;76.63;;
32501;SDS011;18952;52.516;13.460;2022-11-30T06:52:39;106.85;;;77.72;;
32501;SDS011;18952;52.516;13.460;2022-11-30T06:55:06;104.38;;;77.43;;
32501;SDS011;18952;52.516;13.460;2022-11-30T06:57:33;105.60;;;77.78;;
32501;SDS011;18952;52.516;13.460;2022-11-30T07:00:00;105.40;;;76.93;;
32501;SDS011;18952;52.516;13.460;2022-11-30T07:02:27;111.65;;;78.57;;
32501;SDS011;18952;52.516;13.460;2022-11-30T07:04:53;107.32;;;78.93;;
32501;SDS011;18952;52.516;13.460;2022-11-30T07:07:20;106.40;;;76.80;;
32501;SDS011;18952;52.516;13.460;2022-11-30T07:09:48;105.18;;;76.68;;
32501;SDS011;18952;52.516;13.460;2022-11-30T07:12:15;103.85;;;76.07;;
32501;SDS011;18952;52.516;13.460;2022-11-30T07:14:42;106.80;;;75.18;;
32501;SDS011;18952;52.516;13.460;2022-11-30T07:17:08;110.32;;;76.72;;
32501;SDS011;18952;52.516;13.460;2022-11-30T07:19:35;102.80;;;76.53;;
32501;SDS011;18952;52.516;13.460;2022-11-30T07:22:02;109.25;;;77.95;;
32501;SDS011;18952;52.516;13.460;2022-11-30T07:24:29;103.90;;;74.55;;
32501;SDS011;18952;52.516;13.460;2022-11-30T07:26:57;108.45;;;75.78;;
32501;SDS011;18952;52.516;13.460;2022-11-30T07:29:25;107.07;;;76.18;;
32501;SDS011;18952;52.516;13.460;2022-11-30T07:31:52;104.05;;;75.80;;
32501;SDS011;18952;52.516;13.460;2022-11-30T07:34:19;100.13;;;74.50;;
32501;SDS011;18952;52.516;13.460;2022-11-30T07:36:48;103.35;;;74.72;;
32501;SDS011;18952;52.516;13.460;2022-11-30T07:39:15;107.00;;;75.43;;
32501;SDS011;18952;52.516;13.460;2022-11-30T07:41:42;125.38;;;75.97;;
32501;SDS011;18952;52.516;13.460;2022-11-30T07:44:09;112.18;;;77.15;;
32501;SDS011;18952;52.516;13.460;2022-11-30T07:46:36;104.65;;;74.53;;
32501;SDS011;18952;52.516;13.460;2022-11-30T07:49:04;108.18;;;75.63;;
32501;SDS011;18952;52.516;13.460;2022-11-30T07:51:31;106.25;;;74.28;;
32501;SDS011;18952;52.516;13.460;2022-11-30T07:53:59;105.35;;;75.60;;
32501;SDS011;18952;52.516;13.460;2022-11-30T07:56:26;104.85;;;74.85;;
32501;SDS011;18952;52.516;13.460;2022-11-30T07:58:57;100.00;;;74.28;;
32501;SDS011;18952;52.516;13.460;2022-11-30T08:01:26;106.57;;;75.30;;
32501;SDS011;18952;52.516;13.460;2022-11-30T08:03:55;101.57;;;74.93;;
32501;SDS011;18952;52.516;13.460;2022-11-30T08:06:23;108.05;;;76.68;;
32501;SDS011;18952;52.516;13.460;2022-11-30T08:08:53;103.28;;;75.22;;
32501;SDS011;18952;52.516;13.460;2022-11-30T08:11:24;106.63;;;75.35;;
32501;SDS011;18952;52.516;13.460;2022-11-30T08:13:52;108.70;;;73.85;;
32501;SDS011;18952;52.516;13.460;2022-11-30T08:16:20;100.60;;;74.43;;
32501;SDS011;18952;52.516;13.460;2022-11-30T08:18:52;108.57;;;76.50;;
32501;SDS011;18952;52.516;13.460;2022-11-30T08:21:21;107.63;;;75.10;;
32501;SDS011;18952;52.516;13.460;2022-11-30T08:23:49;108.28;;;76.40;;
32501;SDS011;18952;52.516;13.460;2022-11-30T08:28:46;115.35;;;75.68;;
32501;SDS011;18952;52.516;13.460;2022-11-30T08:31:16;106.20;;;75.60;;
32501;SDS011;18952;52.516;13.460;2022-11-30T08:33:45;114.10;;;77.05;;
32501;SDS011;18952;52.516;13.460;2022-11-30T08:36:13;125.80;;;77.60;;
32501;SDS011;18952;52.516;13.460;2022-11-30T08:38:40;120.88;;;76.53;;
32501;SDS011;18952;52.516;13.460;2022-11-30T08:41:09;108.32;;;74.07;;
32501;SDS011;18952;52.516;13.460;2022-11-30T08:43:37;105.75;;;73.00;;
32501;SDS011;18952;52.516;13.460;2022-11-30T08:46:05;108.30;;;74.53;;
32501;SDS011;18952;52.516;13.460;2022-11-30T08:48:53;100.63;;;74.47;;
32501;SDS011;18952;52.516;13.460;2022-11-30T08:51:39;103.78;;;71.13;;
32501;SDS011;18952;52.516;13.460;2022-11-30T08:54:26;106.65;;;73.20;;
32501;SDS011;18952;52.516;13.460;2022-11-30T08:56:53;98.78;;;71.35;;
32501;SDS011;18952;52.516;13.460;2022-11-30T08:59:20;103.18;;;74.43;;
32501;SDS011;18952;52.516;13.460;2022-11-30T09:01:46;97.22;;;72.18;;
32501;SDS011;18952;52.516;13.460;2022-11-30T09:04:13;97.95;;;70.78;;
32501;SDS011;18952;52.516;13.460;2022-11-30T09:06:40;101.03;;;71.03;;
32501;SDS011;18952;52.516;13.460;2022-11-30T09:09:12;95.18;;;71.32;;
32501;SDS011;18952;52.516;13.460;2022-11-30T09:11:40;98.55;;;72.25;;
32501;SDS011;18952;52.516;13.460;2022-11-30T09:14:07;98.65;;;74.47;;
32501;SDS011;18952;52.516;13.460;2022-11-30T09:16:35;106.93;;;72.65;;
32501;SDS011;18952;52.516;13.460;2022-11-30T09:19:02;101.65;;;71.32;;
32501;SDS011;18952;52.516;13.460;2022-11-30T09:21:29;102.93;;;72.53;;
32501;SDS011;18952;52.516;13.460;2022-11-30T09:23:55;98.70;;;71.05;;
32501;SDS011;18952;52.516;13.460;2022-11-30T09:26:22;104.38;;;73.90;;
32501;SDS011;18952;52.516;13.460;2022-11-30T09:28:49;103.35;;;70.95;;
32501;SDS011;18952;52.516;13.460;2022-11-30T09:31:19;99.70;;;71.78;;
32501;SDS011;18952;52.516;13.460;2022-11-30T09:33:47;95.88;;;71.00;;
32501;SDS011;18952;52.516;13.460;2022-11-30T09:36:15;99.68;;;71.88;;
32501;SDS011;18952;52.516;13.460;2022-11-30T09:38:44;96.85;;;71.90;;
32501;SDS011;18952;52.516;13.460;2022-11-30T09:46:53;98.22;;;72.95;;
32501;SDS011;18952;52.516;13.460;2022-11-30T09:49:31;99.40;;;71.43;;
32501;SDS011;18952;52.516;13.460;2022-11-30T09:52:05;96.82;;;69.28;;
32501;SDS011;18952;52.516;13.460;2022-11-30T09:54:39;92.80;;;69.00;;
32501;SDS011;18952;52.516;13.460;2022-11-30T10:00:00;100.95;;;72.18;;
32501;SDS011;18952;52.516;13.460;2022-11-30T10:02:35;101.03;;;69.38;;
32501;SDS011;18952;52.516;13.460;2022-11-30T10:05:13;97.43;;;69.13;;
32501;SDS011;18952;52.516;13.460;2022-11-30T10:07:48;92.82;;;69.65;;
32501;SDS011;18952;52.516;13.460;2022-11-30T10:10:40;95.20;;;69.05;;
32501;SDS011;18952;52.516;13.460;2022-11-30T10:13:33;104.90;;;72.32;;
32501;SDS011;18952;52.516;13.460;2022-11-30T10:16:47;101.75;;;68.80;;
32501;SDS011;18952;52.516;13.460;2022-11-30T10:25:28;94.40;;;68.22;;
32501;SDS011;18952;52.516;13.460;2022-11-30T10:30:51;94.90;;;68.93;;
32501;SDS011;18952;52.516;13.460;2022-11-30T10:33:19;93.88;;;68.43;;
32501;SDS011;18952;52.516;13.460;2022-11-30T10:35:53;102.82;;;71.53;;
32501;SDS011;18952;52.516;13.460;2022-11-30T10:46:27;92.97;;;67.93;;
32501;SDS011;18952;52.516;13.460;2022-11-30T10:48:58;85.63;;;64.85;;
32501;SDS011;18952;52.516;13.460;2022-11-30T10:51:32;101.53;;;69.10;;
32501;SDS011;18952;52.516;13.460;2022-11-30T10:54:03;95.47;;;65.78;;
32501;SDS011;18952;52.516;13.460;2022-11-30T10:56:42;90.03;;;66.30;;
32501;SDS011;18952;52.516;13.460;2022-11-30T11:01:47;92.03;;;66.97;;
32501;SDS011;18952;52.516;13.460;2022-11-30T11:04:15;92.95;;;66.28;;
32501;SDS011;18952;52.516;13.460;2022-11-30T11:06:47;91.10;;;65.53;;
32501;SDS011;18952;52.516;13.460;2022-11-30T11:09:21;90.07;;;67.45;;
32501;SDS011;18952;52.516;13.460;2022-11-30T11:11:52;101.95;;;68.10;;
32501;SDS011;18952;52.516;13.460;2022-11-30T11:14:21;91.50;;;67.32;;
32501;SDS011;18952;52.516;13.460;2022-11-30T11:19:38;92.30;;;67.55;;
32501;SDS011;18952;52.516;13.460;2022-11-30T11:22:16;92.28;;;68.43;;
32501;SDS011;18952;52.516;13.460;2022-11-30T11:24:47;101.68;;;68.07;;
32501;SDS011;18952;52.516;13.460;2022-11-30T11:27:19;95.57;;;68.95;;
32501;SDS011;18952;52.516;13.460;2022-11-30T11:29:46;90.40;;;66.63;;
32501;SDS011;18952;52.516;13.460;2022-11-30T11:32:23;94.15;;;69.10;;
32501;SDS011;18952;52.516;13.460;2022-11-30T11:34:50;89.80;;;67.63;;
32501;SDS011;18952;52.516;13.460;2022-11-30T11:42:49;90.60;;;67.05;;
32501;SDS011;18952;52.516;13.460;2022-11-30T11:45:22;90.13;;;67.35;;
32501;SDS011;18952;52.516;13.460;2022-11-30T11:48:00;97.63;;;70.40;;
32501;SDS011;18952;52.516;13.460;2022-11-30T11:50:33;102.88;;;71.35;;
32501;SDS011;18952;52.516;13.460;2022-11-30T11:53:22;94.60;;;69.03;;
32501;SDS011;18952;52.516;13.460;2022-11-30T11:56:10;94.50;;;69.25;;
32501;SDS011;18952;52.516;13.460;2022-11-30T11:58:43;91.38;;;68.60;;
32501;SDS011;18952;52.516;13.460;2022-11-30T12:01:36;96.35;;;69.40;;
32501;SDS011;18952;52.516;13.460;2022-11-30T12:06:54;95.32;;;70.38;;
32501;SDS011;18952;52.516;13.460;2022-11-30T12:09:24;87.72;;;67.70;;
32501;SDS011;18952;52.516;13.460;2022-11-30T12:11:56;91.18;;;68.13;;
32501;SDS011;18952;52.516;13.460;2022-11-30T12:14:23;94.55;;;70.35;;
32501;SDS011;18952;52.516;13.460;2022-11-30T12:19:26;96.22;;;71.78;;
32501;SDS011;18952;52.516;13.460;2022-11-30T12:22:36;104.32;;;72.13;;
32501;SDS011;18952;52.516;13.460;2022-11-30T12:25:26;101.75;;;71.75;;
32501;SDS011;18952;52.516;13.460;2022-11-30T12:42:34;103.75;;;80.50;;
32501;SDS011;18952;52.516;13.460;2022-11-30T12:50:38;116.85;;;84.10;;
32501;SDS011;18952;52.516;13.460;2022-11-30T12:53:31;117.72;;;86.47;;
32501;SDS011;18952;52.516;13.460;2022-11-30T12:56:29;132.25;;;100.30;;
32501;SDS011;18952;52.516;13.460;2022-11-30T12:59:17;121.70;;;87.47;;
32501;SDS011;18952;52.516;13.460;2022-11-30T13:01:47;121.35;;;85.13;;
32501;SDS011;18952;52.516;13.460;2022-11-30T13:07:45;120.10;;;84.80;;
32501;SDS011;18952;52.516;13.460;2022-11-30T13:10:20;112.10;;;82.38;;
32501;SDS011;18952;52.516;13.460;2022-11-30T13:12:57;112.90;;;80.05;;
32501;SDS011;18952;52.516;13.460;2022-11-30T13:15:27;106.88;;;81.13;;
32501;SDS011;18952;52.516;13.460;2022-11-30T13:17:55;107.85;;;79.10;;
32501;SDS011;18952;52.516;13.460;2022-11-30T13:21:08;112.10;;;78.18;;
32501;SDS011;18952;52.516;13.460;2022-11-30T13:29:09;116.55;;;82.40;;
32501;SDS011;18952;52.516;13.460;2022-11-30T13:35:09;119.00;;;83.78;;
32501;SDS011;18952;52.516;13.460;2022-11-30T13:41:07;115.53;;;82.82;;
32501;SDS011;18952;52.516;13.460;2022-11-30T13:43:42;121.47;;;82.45;;
32501;SDS011;18952;52.516;13.460;2022-11-30T13:46:14;118.30;;;83.68;;
32501;SDS011;18952;52.516;13.460;2022-11-30T13:48:46;122.00;;;86.70;;
32501;SDS011;18952;52.516;13.460;2022-11-30T13:51:32;126.35;;;87.95;;
32501;SDS011;18952;52.516;13.460;2022-11-30T13:56:53;136.80;;;91.28;;
32501;SDS011;18952;52.516;13.460;2022-11-30T14:01:47;137.50;;;92.43;;
32501;SDS011;18952;52.516;13.460;2022-11-30T14:06:47;131.23;;;89.80;;
32501;SDS011;18952;52.516;13.460;2022-11-30T14:09:53;138.20;;;93.28;;
32501;SDS011;18952;52.516;13.460;2022-11-30T14:14:57;143.73;;;97.00;;
32501;SDS011;18952;52.516;13.460;2022-11-30T14:17:25;146.68;;;98.68;;
32501;SDS011;18952;52.516;13.460;2022-11-30T14:20:15;145.20;;;96.88;;
32501;SDS011;18952;52.516;13.460;2022-11-30T14:22:42;145.27;;;97.30;;
32501;SDS011;18952;52.516;13.460;2022-11-30T14:25:15;153.05;;;98.07;;
32501;SDS011;18952;52.516;13.460;2022-11-30T14:27:45;160.18;;;96.45;;
32501;SDS011;18952;52.516;13.460;2022-11-30T14:30:17;155.23;;;97.53;;
32501;SDS011;18952;52.516;13.460;2022-11-30T14:32:48;155.80;;;97.82;;
32501;SDS011;18952;52.516;13.460;2022-11-30T14:35:20;164.18;;;101.78;;
32501;SDS011;18952;52.516;13.460;2022-11-30T14:37:55;159.88;;;99.63;;
32501;SDS011;18952;52.516;13.460;2022-11-30T14:40:24;157.57;;;100.63;;
32501;SDS011;18952;52.516;13.460;2022-11-30T14:42:56;163.85;;;101.10;;
32501;SDS011;18952;52.516;13.460;2022-11-30T14:45:26;160.90;;;100.68;;
32501;SDS011;18952;52.516;13.460;2022-11-30T14:50:32;165.80;;;101.20;;
32501;SDS011;18952;52.516;13.460;2022-11-30T15:01:12;155.55;;;92.25;;
32501;SDS011;18952;52.516;13.460;2022-11-30T15:03:43;158.82;;;92.20;;
32501;SDS011;18952;52.516;13.460;2022-11-30T15:06:14;154.82;;;91.72;;
32501;SDS011;18952;52.516;13.460;2022-11-30T15:08:47;151.95;;;91.53;;
32501;SDS011;18952;52.516;13.460;2022-11-30T15:11:18;159.15;;;91.30;;
32501;SDS011;18952;52.516;13.460;2022-11-30T15:13:47;149.27;;;89.32;;
32501;SDS011;18952;52.516;13.460;2022-11-30T15:16:27;162.45;;;93.45;;
32501;SDS011;18952;52.516;13.460;2022-11-30T15:18:55;163.07;;;91.85;;
32501;SDS011;18952;52.516;13.460;2022-11-30T15:21:30;155.68;;;91.40;;
32501;SDS011;18952;52.516;13.460;2022-11-30T15:23:58;164.32;;;92.68;;
32501;SDS011;18952;52.516;13.460;2022-11-30T15:28:57;164.88;;;90.20;;
32501;SDS011;18952;52.516;13.460;2022-11-30T15:31:33;158.80;;;89.35;;
32501;SDS011;18952;52.516;13.460;2022-11-30T15:34:03;159.95;;;89.07;;
32501;SDS011;18952;52.516;13.460;2022-11-30T15:36:34;159.10;;;90.22;;
32501;SDS011;18952;52.516;13.460;2022-11-30T15:39:04;158.90;;;93.63;;
32501;SDS011;18952;52.516;13.460;2022-11-30T15:41:33;163.90;;;91.43;;
32501;SDS011;18952;52.516;13.460;2022-11-30T15:44:00;159.68;;;89.53;;
32501;SDS011;18952;52.516;13.460;2022-11-30T15:46:35;157.82;;;89.60;;
32501;SDS011;18952;52.516;13.460;2022-11-30T15:51:39;161.07;;;91.53;;
32501;SDS011;18952;52.516;13.460;2022-11-30T15:54:07;159.02;;;91.57;;
32501;SDS011;18952;52.516;13.460;2022-11-30T15:56:33;165.90;;;91.18;;
32501;SDS011;18952;52.516;13.460;2022-11-30T15:59:05;167.02;;;92.85;;
32501;SDS011;18952;52.516;13.460;2022-11-30T16:04:18;169.30;;;92.22;;
32501;SDS011;18952;52.516;13.460;2022-11-30T16:06:45;167.02;;;94.38;;
32501;SDS011;18952;52.516;13.460;2022-11-30T16:09:21;170.00;;;93.15;;
32501;SDS011;18952;52.516;13.460;2022-11-30T16:11:53;160.00;;;91.03;;
32501;SDS011;18952;52.516;13.460;2022-11-30T16:14:22;165.82;;;89.95;;
32501;SDS011;18952;52.516;13.460;2022-11-30T16:16:49;173.23;;;94.90;;
32501;SDS011;18952;52.516;13.460;2022-11-30T16:19:17;170.63;;;89.05;;
32501;SDS011;18952;52.516;13.460;2022-11-30T16:21:43;159.07;;;88.80;;
32501;SDS011;18952;52.516;13.460;2022-11-30T16:24:12;160.05;;;87.93;;
32501;SDS011;18952;52.516;13.460;2022-11-30T16:26:40;165.63;;;91.45;;
32501;SDS011;18952;52.516;13.460;2022-11-30T16:29:18;159.98;;;88.18;;